sensor_id;sensor_type;location;lat;lon;timestamp;pressure;altitude;pressure_sealevel;temperature;humidity
9289;BME280;4683;50.864;12.086;2022-10-17T00:01:34;99672.38;;;14.89;100.00
9289;BME280;4683;50.864;12.086;2022-10-17T00:04:03;99677.31;;;14.92;100.00
9289;BME280;4683;50.864;12.086;2022-10-17T00:06:31;99676.09;;;14.95;100.00
9289;BME280;4683;50.864;12.086;2022-10-17T00:09:01;99673.03;;;14.98;100.00
9289;BME280;4683;50.864;12.086;2022-10-17T00:11:31;99681.91;;;15.05;100.00
9289;BME280;4683;50.864;12.086;2022-10-17T00:14:00;99686.25;;;15.13;100.00
9289;BME280;4683;50.864;12.086;2022-10-17T00:16:34;99692.19;;;15.15;100.00
9289;BME280;4683;50.864;12.086;2022-10-17T00:19:05;99693.81;;;15.16;100.00
9289;BME280;4683;50.864;12.086;2022-10-17T00:21:35;99697.28;;;15.16;100.00
9289;BME280;4683;50.864;12.086;2022-10-17T00:24:06;99690.97;;;15.17;100.00
9289;BME280;4683;50.864;12.086;2022-10-17T00:26:34;99695.03;;;15.13;100.00
9289;BME280;4683;50.864;12.086;2022-10-17T00:29:04;99694.38;;;15.05;100.00
9289;BME280;4683;50.864;12.086;2022-10-17T00:31:32;99699.69;;;15.05;100.00
9289;BME280;4683;50.864;12.086;2022-10-17T00:34:01;99702.34;;;15.05;100.00
9289;BME280;4683;50.864;12.086;2022-10-17T00:36:32;99706.00;;;15.04;100.00
9289;BME280;4683;50.864;12.086;2022-10-17T00:39:01;99700.28;;;15.07;100.00
9289;BME280;4683;50.864;12.086;2022-10-17T00:41:32;99692.53;;;15.05;100.00
9289;BME280;4683;50.864;12.086;2022-10-17T00:44:03;99694.59;;;15.10;100.00
9289;BME280;4683;50.864;12.086;2022-10-17T00:46:34;99705.25;;;15.16;100.00
9289;BME280;4683;50.864;12.086;2022-10-17T00:49:09;99702.59;;;15.16;100.00
9289;BME280;4683;50.864;12.086;2022-10-17T00:52:26;99697.13;;;15.18;100.00
9289;BME280;4683;50.864;12.086;2022-10-17T00:55:00;99695.88;;;15.20;100.00
9289;BME280;4683;50.864;12.086;2022-10-17T00:57:33;99700.63;;;15.25;100.00
9289;BME280;4683;50.864;12.086;2022-10-17T01:00:07;99702.94;;;14.79;100.00
9289;BME280;4683;50.864;12.086;2022-10-17T01:02:36;99694.66;;;14.24;100.00
9289;BME280;4683;50.864;12.086;2022-10-17T01:05:06;99690.41;;;14.08;100.00
9289;BME280;4683;50.864;12.086;2022-10-17T01:07:35;99680.28;;;13.97;100.00
9289;BME280;4683;50.864;12.086;2022-10-17T01:10:07;99677.09;;;13.87;100.00
9289;BME280;4683;50.864;12.086;2022-10-17T01:12:54;99673.53;;;13.94;100.00
9289;BME280;4683;50.864;12.086;2022-10-17T01:15:39;99677.81;;;14.17;100.00
9289;BME280;4683;50.864;12.086;2022-10-17T01:18:26;99686.00;;;14.37;100.00
9289;BME280;4683;50.864;12.086;2022-10-17T01:21:37;99687.19;;;14.49;100.00
9289;BME280;4683;50.864;12.086;2022-10-17T01:24:46;99689.50;;;14.59;100.00
9289;BME280;4683;50.864;12.086;2022-10-17T01:31:05;99681.66;;;14.72;100.00
9289;BME280;4683;50.864;12.086;2022-10-17T01:33:51;99686.56;;;14.75;100.00
9289;BME280;4683;50.864;12.086;2022-10-17T01:36:47;99679.38;;;14.69;100.00
9289;BME280;4683;50.864;12.086;2022-10-17T01:39:23;99670.25;;;14.78;100.00
9289;BME280;4683;50.864;12.086;2022-10-17T01:41:59;99667.25;;;14.88;100.00
9289;BME280;4683;50.864;12.086;2022-10-17T01:44:33;99667.31;;;14.94;100.00
9289;BME280;4683;50.864;12.086;2022-10-17T01:47:09;99668.81;;;15.04;100.00
9289;BME280;4683;50.864;12.086;2022-10-17T01:49:42;99661.31;;;15.14;100.00
9289;BME280;4683;50.864;12.086;2022-10-17T01:52:17;99659.75;;;15.26;100.00
9289;BME280;4683;50.864;12.086;2022-10-17T01:54:50;99660.00;;;15.38;100.00
9289;BME280;4683;50.864;12.086;2022-10-17T01:57:25;99653.53;;;15.54;100.00
9289;BME280;4683;50.864;12.086;2022-10-17T01:59:55;99654.84;;;15.64;100.00
9289;BME280;4683;50.864;12.086;2022-10-17T02:02:26;99658.53;;;15.70;100.00
9289;BME280;4683;50.864;12.086;2022-10-17T02:04:56;99645.88;;;15.72;100.00
9289;BME280;4683;50.864;12.086;2022-10-17T02:07:25;99647.31;;;15.75;100.00
9289;BME280;4683;50.864;12.086;2022-10-17T02:10:18;99648.53;;;15.72;100.00
9289;BME280;4683;50.864;12.086;2022-10-17T02:12:56;99651.63;;;15.82;100.00
9289;BME280;4683;50.864;12.086;2022-10-17T02:16:08;99655.09;;;15.76;100.00
9289;BME280;4683;50.864;12.086;2022-10-17T02:21:47;99652.63;;;15.68;100.00
9289;BME280;4683;50.864;12.086;2022-10-17T02:24:24;99653.63;;;15.67;100.00
9289;BME280;4683;50.864;12.086;2022-10-17T02:27:04;99651.97;;;15.66;100.00
9289;BME280;4683;50.864;12.086;2022-10-17T02:29:38;99642.56;;;15.70;100.00
9289;BME280;4683;50.864;12.086;2022-10-17T02:32:15;99649.16;;;15.74;100.00
9289;BME280;4683;50.864;12.086;2022-10-17T02:34:49;99646.91;;;15.78;100.00
9289;BME280;4683;50.864;12.086;2022-10-17T02:37:25;99653.66;;;15.73;100.00
9289;BME280;4683;50.864;12.086;2022-10-17T02:39:55;99651.59;;;15.69;100.00
9289;BME280;4683;50.864;12.086;2022-10-17T02:42:25;99660.22;;;15.36;100.00
9289;BME280;4683;50.864;12.086;2022-10-17T02:44:58;99657.59;;;15.08;100.00
9289;BME280;4683;50.864;12.086;2022-10-17T02:47:32;99652.00;;;14.96;100.00
9289;BME280;4683;50.864;12.086;2022-10-17T02:50:05;99657.59;;;14.80;100.00
9289;BME280;4683;50.864;12.086;2022-10-17T02:52:38;99661.13;;;14.59;100.00
9289;BME280;4683;50.864;12.086;2022-10-17T02:55:13;99665.47;;;14.45;100.00
9289;BME280;4683;50.864;12.086;2022-10-17T02:57:46;99656.84;;;14.43;100.00
9289;BME280;4683;50.864;12.086;2022-10-17T03:00:17;99663.44;;;14.47;100.00
9289;BME280;4683;50.864;12.086;2022-10-17T03:02:49;99663.09;;;14.51;100.00
9289;BME280;4683;50.864;12.086;2022-10-17T03:05:22;99668.06;;;14.60;100.00
9289;BME280;4683;50.864;12.086;2022-10-17T03:07:52;99666.09;;;14.69;100.00
9289;BME280;4683;50.864;12.086;2022-10-17T03:10:21;99678.34;;;14.70;100.00
9289;BME280;4683;50.864;12.086;2022-10-17T03:12:49;99677.59;;;14.76;100.00
9289;BME280;4683;50.864;12.086;2022-10-17T03:15:18;99669.81;;;14.75;100.00
9289;BME280;4683;50.864;12.086;2022-10-17T03:17:46;99682.50;;;14.79;100.00
9289;BME280;4683;50.864;12.086;2022-10-17T03:20:17;99676.44;;;14.85;100.00
9289;BME280;4683;50.864;12.086;2022-10-17T03:22:47;99674.84;;;14.91;100.00
9289;BME280;4683;50.864;12.086;2022-10-17T03:25:15;99677.31;;;14.92;100.00
9289;BME280;4683;50.864;12.086;2022-10-17T03:27:43;99679.19;;;14.98;100.00
9289;BME280;4683;50.864;12.086;2022-10-17T03:30:12;99680.25;;;15.04;100.00
9289;BME280;4683;50.864;12.086;2022-10-17T03:32:41;99685.38;;;15.06;100.00
9289;BME280;4683;50.864;12.086;2022-10-17T03:35:10;99684.75;;;15.04;100.00
9289;BME280;4683;50.864;12.086;2022-10-17T03:37:38;99684.09;;;15.02;100.00
9289;BME280;4683;50.864;12.086;2022-10-17T03:40:09;99698.66;;;15.06;100.00
9289;BME280;4683;50.864;12.086;2022-10-17T03:42:37;99700.53;;;15.12;100.00
9289;BME280;4683;50.864;12.086;2022-10-17T03:45:07;99697.13;;;15.18;100.00
9289;BME280;4683;50.864;12.086;2022-10-17T03:47:36;99702.22;;;15.19;100.00
9289;BME280;4683;50.864;12.086;2022-10-17T03:50:06;99698.16;;;15.23;100.00
9289;BME280;4683;50.864;12.086;2022-10-17T03:52:34;99700.63;;;15.25;100.00
9289;BME280;4683;50.864;12.086;2022-10-17T03:55:04;99701.25;;;15.27;100.00
9289;BME280;4683;50.864;12.086;2022-10-17T03:57:35;99713.53;;;15.28;100.00
9289;BME280;4683;50.864;12.086;2022-10-17T04:00:05;99710.25;;;15.26;100.00
9289;BME280;4683;50.864;12.086;2022-10-17T04:02:34;99715.56;;;15.26;100.00
9289;BME280;4683;50.864;12.086;2022-10-17T04:05:03;99719.44;;;15.23;100.00
9289;BME280;4683;50.864;12.086;2022-10-17T04:07:31;99731.31;;;15.00;100.00
9289;BME280;4683;50.864;12.086;2022-10-17T04:09:59;99741.28;;;14.69;100.00
9289;BME280;4683;50.864;12.086;2022-10-17T04:12:28;99742.09;;;14.70;100.00
9289;BME280;4683;50.864;12.086;2022-10-17T04:14:57;99743.22;;;14.61;100.00
9289;BME280;4683;50.864;12.086;2022-10-17T04:17:28;99752.13;;;14.53;100.00
9289;BME280;4683;50.864;12.086;2022-10-17T04:19:57;99750.91;;;14.49;100.00
9289;BME280;4683;50.864;12.086;2022-10-17T04:22:25;99741.09;;;14.50;100.00
9289;BME280;4683;50.864;12.086;2022-10-17T04:24:54;99736.66;;;14.57;100.00
9289;BME280;4683;50.864;12.086;2022-10-17T04:27:22;99745.53;;;14.64;100.00
9289;BME280;4683;50.864;12.086;2022-10-17T04:29:51;99745.13;;;14.67;100.00
9289;BME280;4683;50.864;12.086;2022-10-17T04:32:21;99750.44;;;14.67;100.00
9289;BME280;4683;50.864;12.086;2022-10-17T04:34:49;99755.94;;;14.65;100.00
9289;BME280;4683;50.864;12.086;2022-10-17T04:37:17;99744.88;;;14.62;100.00
9289;BME280;4683;50.864;12.086;2022-10-17T04:39:46;99748.91;;;14.58;100.00
9289;BME280;4683;50.864;12.086;2022-10-17T04:42:15;99748.91;;;14.58;100.00
9289;BME280;4683;50.864;12.086;2022-10-17T04:44:43;99746.00;;;14.53;100.00
9289;BME280;4683;50.864;12.086;2022-10-17T04:47:11;99759.88;;;14.33;100.00
9289;BME280;4683;50.864;12.086;2022-10-17T04:49:41;99755.88;;;14.08;100.00
9289;BME280;4683;50.864;12.086;2022-10-17T04:52:10;99749.34;;;13.89;100.00
9289;BME280;4683;50.864;12.086;2022-10-17T04:54:39;99750.28;;;13.81;100.00
9289;BME280;4683;50.864;12.086;2022-10-17T04:57:08;99748.53;;;13.88;100.00
9289;BME280;4683;50.864;12.086;2022-10-17T04:59:36;99749.03;;;13.99;100.00
9289;BME280;4683;50.864;12.086;2022-10-17T05:02:06;99753.25;;;14.08;100.00
9289;BME280;4683;50.864;12.086;2022-10-17T05:04:34;99753.34;;;14.14;100.00
9289;BME280;4683;50.864;12.086;2022-10-17T05:07:04;99756.44;;;14.18;100.00
9289;BME280;4683;50.864;12.086;2022-10-17T05:09:33;99750.13;;;14.19;100.00
9289;BME280;4683;50.864;12.086;2022-10-17T05:12:01;99753.78;;;14.18;100.00
9289;BME280;4683;50.864;12.086;2022-10-17T05:14:29;99765.22;;;14.18;100.00
9289;BME280;4683;50.864;12.086;2022-10-17T05:16:58;99758.91;;;14.19;100.00
9289;BME280;4683;50.864;12.086;2022-10-17T05:19:26;99764.00;;;14.21;100.00
9289;BME280;4683;50.864;12.086;2022-10-17T05:21:58;99764.56;;;14.16;100.00
9289;BME280;4683;50.864;12.086;2022-10-17T05:24:27;99762.47;;;14.12;100.00
9289;BME280;4683;50.864;12.086;2022-10-17T05:26:56;99765.69;;;14.07;100.00
9289;BME280;4683;50.864;12.086;2022-10-17T05:29:25;99770.56;;;14.04;100.00
9289;BME280;4683;50.864;12.086;2022-10-17T05:31:53;99763.97;;;14.00;100.00
9289;BME280;4683;50.864;12.086;2022-10-17T05:34:21;99767.81;;;13.97;100.00
9289;BME280;4683;50.864;12.086;2022-10-17T05:36:51;99772.66;;;13.93;100.00
9289;BME280;4683;50.864;12.086;2022-10-17T05:39:19;99774.88;;;13.75;100.00
9289;BME280;4683;50.864;12.086;2022-10-17T05:41:50;99776.44;;;13.69;100.00
9289;BME280;4683;50.864;12.086;2022-10-17T05:44:19;99766.63;;;13.70;100.00
9289;BME280;4683;50.864;12.086;2022-10-17T05:46:48;99763.53;;;13.66;100.00
9289;BME280;4683;50.864;12.086;2022-10-17T05:49:17;99767.66;;;13.69;100.00
9289;BME280;4683;50.864;12.086;2022-10-17T05:51:46;99771.50;;;13.81;100.00
9289;BME280;4683;50.864;12.086;2022-10-17T05:54:14;99772.22;;;13.90;100.00
9289;BME280;4683;50.864;12.086;2022-10-17T05:56:43;99779.81;;;13.78;100.00
9289;BME280;4683;50.864;12.086;2022-10-17T05:59:13;99784.22;;;13.86;100.00
9289;BME280;4683;50.864;12.086;2022-10-17T06:01:41;99778.41;;;13.97;100.00
9289;BME280;4683;50.864;12.086;2022-10-17T06:04:10;99785.19;;;14.00;100.00
9289;BME280;4683;50.864;12.086;2022-10-17T06:06:39;99779.78;;;14.08;100.00
9289;BME280;4683;50.864;12.086;2022-10-17T06:09:08;99789.66;;;14.14;100.00
9289;BME280;4683;50.864;12.086;2022-10-17T06:11:36;99789.81;;;14.27;100.00
9289;BME280;4683;50.864;12.086;2022-10-17T06:14:04;99792.19;;;14.37;100.00
9289;BME280;4683;50.864;12.086;2022-10-17T06:16:34;99789.69;;;14.50;100.00
9289;BME280;4683;50.864;12.086;2022-10-17T06:19:03;99798.44;;;14.65;100.00
9289;BME280;4683;50.864;12.086;2022-10-17T06:21:31;99804.25;;;14.76;100.00
9289;BME280;4683;50.864;12.086;2022-10-17T06:24:03;99810.72;;;14.88;100.00
9289;BME280;4683;50.864;12.086;2022-10-17T06:26:32;99810.78;;;14.94;100.00
9289;BME280;4683;50.864;12.086;2022-10-17T06:29:00;99810.78;;;14.94;100.00
9289;BME280;4683;50.864;12.086;2022-10-17T06:31:29;99814.88;;;14.76;100.00
9289;BME280;4683;50.864;12.086;2022-10-17T06:34:00;99812.41;;;14.74;100.00
9289;BME280;4683;50.864;12.086;2022-10-17T06:36:29;99813.44;;;14.73;100.00
9289;BME280;4683;50.864;12.086;2022-10-17T06:38:57;99812.28;;;14.82;100.00
9289;BME280;4683;50.864;12.086;2022-10-17T06:41:27;99819.63;;;15.02;100.00
9289;BME280;4683;50.864;12.086;2022-10-17T06:43:55;99818.84;;;15.29;100.00
9289;BME280;4683;50.864;12.086;2022-10-17T06:46:24;99826.81;;;15.57;100.00
9289;BME280;4683;50.864;12.086;2022-10-17T06:48:55;99832.53;;;15.82;100.00
9289;BME280;4683;50.864;12.086;2022-10-17T06:51:25;99839.59;;;16.03;100.00
9289;BME280;4683;50.864;12.086;2022-10-17T06:53:57;99846.47;;;16.19;100.00
9289;BME280;4683;50.864;12.086;2022-10-17T06:56:26;99851.69;;;16.40;100.00
9289;BME280;4683;50.864;12.086;2022-10-17T06:58:55;99851.53;;;16.55;100.00
9289;BME280;4683;50.864;12.086;2022-10-17T07:01:25;99852.84;;;16.72;100.00
9289;BME280;4683;50.864;12.086;2022-10-17T07:03:55;99855.34;;;16.87;100.00
9289;BME280;4683;50.864;12.086;2022-10-17T07:06:25;99867.66;;;17.02;100.00
9289;BME280;4683;50.864;12.086;2022-10-17T07:08:55;99864.41;;;17.13;100.00
9289;BME280;4683;50.864;12.086;2022-10-17T07:11:23;99861.56;;;17.28;100.00
9289;BME280;4683;50.864;12.086;2022-10-17T07:13:53;99868.31;;;17.43;100.00
9289;BME280;4683;50.864;12.086;2022-10-17T07:16:22;99872.00;;;17.56;100.00
9289;BME280;4683;50.864;12.086;2022-10-17T07:18:51;99871.78;;;17.70;100.00
9289;BME280;4683;50.864;12.086;2022-10-17T07:21:20;99876.97;;;17.85;100.00
9289;BME280;4683;50.864;12.086;2022-10-17T07:23:50;99878.97;;;17.96;100.00
9289;BME280;4683;50.864;12.086;2022-10-17T07:26:20;99881.03;;;18.08;100.00
9289;BME280;4683;50.864;12.086;2022-10-17T07:28:52;99882.00;;;18.20;100.00
9289;BME280;4683;50.864;12.086;2022-10-17T07:31:22;99880.94;;;18.34;100.00
9289;BME280;4683;50.864;12.086;2022-10-17T07:33:51;99878.84;;;18.49;100.00
9289;BME280;4683;50.864;12.086;2022-10-17T07:36:20;99876.09;;;18.63;100.00
9289;BME280;4683;50.864;12.086;2022-10-17T07:38:50;99886.16;;;18.74;100.00
9289;BME280;4683;50.864;12.086;2022-10-17T07:41:20;99880.38;;;18.77;100.00
9289;BME280;4683;50.864;12.086;2022-10-17T07:43:49;99889.56;;;18.88;100.00
9289;BME280;4683;50.864;12.086;2022-10-17T07:46:17;99876.50;;;19.05;100.00
9289;BME280;4683;50.864;12.086;2022-10-17T07:48:46;99880.09;;;19.23;100.00
9289;BME280;4683;50.864;12.086;2022-10-17T07:51:15;99878.38;;;19.36;100.00
9289;BME280;4683;50.864;12.086;2022-10-17T07:53:44;99880.81;;;19.37;100.00
9289;BME280;4683;50.864;12.086;2022-10-17T07:56:14;99876.25;;;19.44;100.00
9289;BME280;4683;50.864;12.086;2022-10-17T07:58:43;99887.25;;;19.55;100.00
9289;BME280;4683;50.864;12.086;2022-10-17T08:01:14;99880.56;;;19.70;100.00
9289;BME280;4683;50.864;12.086;2022-10-17T08:04:15;99881.06;;;19.86;100.00
9289;BME280;4683;50.864;12.086;2022-10-17T08:06:44;99881.38;;;19.71;100.00
9289;BME280;4683;50.864;12.086;2022-10-17T08:09:15;99879.22;;;19.30;100.00
9289;BME280;4683;50.864;12.086;2022-10-17T08:11:45;99878.38;;;19.36;100.00
9289;BME280;4683;50.864;12.086;2022-10-17T08:14:14;99881.28;;;19.52;100.00
9289;BME280;4683;50.864;12.086;2022-10-17T08:16:43;99883.03;;;19.72;100.00
9289;BME280;4683;50.864;12.086;2022-10-17T08:19:12;99877.47;;;19.92;100.00
9289;BME280;4683;50.864;12.086;2022-10-17T08:21:41;99888.75;;;20.19;100.00
9289;BME280;4683;50.864;12.086;2022-10-17T08:24:13;99890.72;;;20.48;100.00
9289;BME280;4683;50.864;12.086;2022-10-17T08:26:42;99888.72;;;20.74;100.00
9289;BME280;4683;50.864;12.086;2022-10-17T08:29:14;99895.00;;;20.98;100.00
9289;BME280;4683;50.864;12.086;2022-10-17T08:31:43;99890.84;;;21.14;100.00
9289;BME280;4683;50.864;12.086;2022-10-17T08:34:12;99895.66;;;21.23;100.00
9289;BME280;4683;50.864;12.086;2022-10-17T08:36:41;99894.41;;;21.26;100.00
9289;BME280;4683;50.864;12.086;2022-10-17T08:39:10;99886.03;;;21.34;100.00
9289;BME280;4683;50.864;12.086;2022-10-17T08:42:00;99889.19;;;21.31;100.00
9289;BME280;4683;50.864;12.086;2022-10-17T08:44:43;99889.69;;;21.40;100.00
9289;BME280;4683;50.864;12.086;2022-10-17T08:47:23;99884.78;;;21.48;100.00
9289;BME280;4683;50.864;12.086;2022-10-17T08:49:56;99884.22;;;21.58;100.00
9289;BME280;4683;50.864;12.086;2022-10-17T08:52:34;99882.91;;;21.61;100.00
9289;BME280;4683;50.864;12.086;2022-10-17T08:55:16;99882.56;;;21.69;100.00
9289;BME280;4683;50.864;12.086;2022-10-17T08:57:48;99888.28;;;21.84;100.00
9289;BME280;4683;50.864;12.086;2022-10-17T09:00:21;99885.59;;;21.96;100.00
9289;BME280;4683;50.864;12.086;2022-10-17T09:03:04;99890.75;;;21.97;100.00
9289;BME280;4683;50.864;12.086;2022-10-17T09:05:47;99876.38;;;22.03;100.00
9289;BME280;4683;50.864;12.086;2022-10-17T09:08:31;99879.56;;;22.12;100.00
9289;BME280;4683;50.864;12.086;2022-10-17T09:11:11;99893.81;;;22.13;100.00
9289;BME280;4683;50.864;12.086;2022-10-17T09:14:00;99890.97;;;22.08;100.00
9289;BME280;4683;50.864;12.086;2022-10-17T09:16:53;99886.53;;;22.01;100.00
9289;BME280;4683;50.864;12.086;2022-10-17T09:19:31;99882.44;;;22.11;100.00
9289;BME280;4683;50.864;12.086;2022-10-17T09:22:04;99877.44;;;22.26;100.00
9289;BME280;4683;50.864;12.086;2022-10-17T09:24:42;99876.00;;;22.35;100.00
9289;BME280;4683;50.864;12.086;2022-10-17T09:27:21;99877.38;;;22.49;100.00
9289;BME280;4683;50.864;12.086;2022-10-17T09:30:13;99865.09;;;22.53;100.00
9289;BME280;4683;50.864;12.086;2022-10-17T09:32:44;99869.59;;;22.65;100.00
9289;BME280;4683;50.864;12.086;2022-10-17T09:35:17;99879.72;;;22.74;100.00
9289;BME280;4683;50.864;12.086;2022-10-17T09:37:47;99872.91;;;22.84;100.00
9289;BME280;4683;50.864;12.086;2022-10-17T09:40:22;99871.63;;;22.86;100.00
9289;BME280;4683;50.864;12.086;2022-10-17T09:42:53;99869.19;;;22.85;100.00
9289;BME280;4683;50.864;12.086;2022-10-17T09:45:23;99867.53;;;22.84;100.00
9289;BME280;4683;50.864;12.086;2022-10-17T09:48:00;99875.59;;;22.95;100.00
9289;BME280;4683;50.864;12.086;2022-10-17T09:50:34;99873.22;;;23.16;100.00
9289;BME280;4683;50.864;12.086;2022-10-17T09:53:11;99869.91;;;23.09;100.00
9289;BME280;4683;50.864;12.086;2022-10-17T09:55:43;99863.69;;;23.25;100.00
9289;BME280;4683;50.864;12.086;2022-10-17T09:58:14;99859.63;;;23.22;100.00
9289;BME280;4683;50.864;12.086;2022-10-17T10:00:45;99863.22;;;23.28;100.00
9289;BME280;4683;50.864;12.086;2022-10-17T10:03:18;99875.22;;;23.37;100.00
9289;BME280;4683;50.864;12.086;2022-10-17T10:06:03;99861.75;;;23.37;100.00
9289;BME280;4683;50.864;12.086;2022-10-17T10:08:46;99865.00;;;23.56;100.00
9289;BME280;4683;50.864;12.086;2022-10-17T10:11:17;99865.78;;;23.68;100.00
9289;BME280;4683;50.864;12.086;2022-10-17T10:13:48;99855.94;;;23.79;100.00
9289;BME280;4683;50.864;12.086;2022-10-17T10:16:22;99863.88;;;23.86;100.00
9289;BME280;4683;50.864;12.086;2022-10-17T10:18:59;99867.44;;;23.91;100.00
9289;BME280;4683;50.864;12.086;2022-10-17T10:21:28;99867.25;;;23.98;100.00
9289;BME280;4683;50.864;12.086;2022-10-17T10:24:09;99872.75;;;24.03;100.00
9289;BME280;4683;50.864;12.086;2022-10-17T10:26:42;99869.97;;;24.20;100.00
9289;BME280;4683;50.864;12.086;2022-10-17T10:29:23;99861.72;;;24.26;100.00
9289;BME280;4683;50.864;12.086;2022-10-17T10:31:56;99860.84;;;24.43;100.00
9289;BME280;4683;50.864;12.086;2022-10-17T10:34:28;99860.72;;;24.54;100.00
9289;BME280;4683;50.864;12.086;2022-10-17T10:37:01;99857.81;;;24.61;100.00
9289;BME280;4683;50.864;12.086;2022-10-17T10:39:42;99863.53;;;24.65;100.00
9289;BME280;4683;50.864;12.086;2022-10-17T10:42:26;99853.31;;;24.67;100.00
9289;BME280;4683;50.864;12.086;2022-10-17T10:45:03;99859.41;;;24.84;100.00
9289;BME280;4683;50.864;12.086;2022-10-17T10:47:49;99848.69;;;24.89;99.94
9289;BME280;4683;50.864;12.086;2022-10-17T10:50:29;99854.13;;;24.94;99.94
9289;BME280;4683;50.864;12.086;2022-10-17T10:53:30;99853.75;;;25.08;99.77
9289;BME280;4683;50.864;12.086;2022-10-17T10:56:04;99840.69;;;25.26;99.70
9289;BME280;4683;50.864;12.086;2022-10-17T10:58:46;99855.06;;;25.37;97.63
9289;BME280;4683;50.864;12.086;2022-10-17T11:01:28;99851.31;;;25.43;97.64
9289;BME280;4683;50.864;12.086;2022-10-17T11:04:22;99851.56;;;25.37;89.09
9289;BME280;4683;50.864;12.086;2022-10-17T11:07:01;99834.63;;;25.51;78.90
9289;BME280;4683;50.864;12.086;2022-10-17T11:09:45;99832.00;;;25.62;74.49
9289;BME280;4683;50.864;12.086;2022-10-17T11:12:21;99834.34;;;25.80;73.43
9289;BME280;4683;50.864;12.086;2022-10-17T11:14:57;99834.41;;;25.95;74.65
9289;BME280;4683;50.864;12.086;2022-10-17T11:17:35;99836.50;;;25.88;71.42
9289;BME280;4683;50.864;12.086;2022-10-17T11:20:17;99844.97;;;26.02;72.89
9289;BME280;4683;50.864;12.086;2022-10-17T11:22:55;99834.94;;;25.97;74.37
9289;BME280;4683;50.864;12.086;2022-10-17T11:25:33;99834.94;;;25.97;75.95
9289;BME280;4683;50.864;12.086;2022-10-17T11:28:09;99830.97;;;26.15;72.75
9289;BME280;4683;50.864;12.086;2022-10-17T11:30:47;99825.03;;;26.18;67.50
9289;BME280;4683;50.864;12.086;2022-10-17T11:33:24;99823.44;;;26.27;69.62
9289;BME280;4683;50.864;12.086;2022-10-17T11:36:01;99826.75;;;26.40;70.79
9289;BME280;4683;50.864;12.086;2022-10-17T11:38:40;99817.88;;;26.54;68.98
9289;BME280;4683;50.864;12.086;2022-10-17T11:41:14;99816.56;;;26.62;71.22
9289;BME280;4683;50.864;12.086;2022-10-17T11:43:52;99818.47;;;26.72;72.04
9289;BME280;4683;50.864;12.086;2022-10-17T11:46:26;99819.81;;;26.74;69.00
9289;BME280;4683;50.864;12.086;2022-10-17T11:49:06;99817.09;;;26.74;68.17
9289;BME280;4683;50.864;12.086;2022-10-17T11:51:48;99824.41;;;26.84;66.81
9289;BME280;4683;50.864;12.086;2022-10-17T11:54:25;99809.53;;;26.92;64.71
9289;BME280;4683;50.864;12.086;2022-10-17T11:57:18;99804.41;;;26.80;59.92
9289;BME280;4683;50.864;12.086;2022-10-17T11:59:59;99808.72;;;26.96;62.68
9289;BME280;4683;50.864;12.086;2022-10-17T12:02:37;99800.59;;;27.06;62.44
9289;BME280;4683;50.864;12.086;2022-10-17T12:05:21;99800.88;;;26.90;59.14
9289;BME280;4683;50.864;12.086;2022-10-17T12:08:00;99807.63;;;26.82;60.13
9289;BME280;4683;50.864;12.086;2022-10-17T12:10:44;99800.03;;;26.74;59.63
9289;BME280;4683;50.864;12.086;2022-10-17T12:13:48;99801.13;;;26.68;63.32
9289;BME280;4683;50.864;12.086;2022-10-17T12:16:48;99804.34;;;26.70;57.80
9289;BME280;4683;50.864;12.086;2022-10-17T12:19:35;99795.44;;;26.74;61.34
9289;BME280;4683;50.864;12.086;2022-10-17T12:22:22;99800.59;;;26.76;57.88
9289;BME280;4683;50.864;12.086;2022-10-17T12:25:01;99798.41;;;26.63;56.28
9289;BME280;4683;50.864;12.086;2022-10-17T12:27:44;99793.00;;;26.58;55.94
9289;BME280;4683;50.864;12.086;2022-10-17T12:30:23;99799.75;;;26.70;58.03
9289;BME280;4683;50.864;12.086;2022-10-17T12:33:03;99800.84;;;26.74;57.88
9289;BME280;4683;50.864;12.086;2022-10-17T12:35:35;99799.50;;;26.62;58.12
9289;BME280;4683;50.864;12.086;2022-10-17T12:38:42;99803.19;;;26.30;57.05
9289;BME280;4683;50.864;12.086;2022-10-17T12:41:11;99791.06;;;26.48;59.15
9289;BME280;4683;50.864;12.086;2022-10-17T12:43:51;99790.81;;;26.65;58.31
9289;BME280;4683;50.864;12.086;2022-10-17T12:46:46;99784.59;;;26.64;59.29
9289;BME280;4683;50.864;12.086;2022-10-17T12:49:46;99785.13;;;26.61;61.03
9289;BME280;4683;50.864;12.086;2022-10-17T12:52:55;99785.97;;;26.62;60.84
9289;BME280;4683;50.864;12.086;2022-10-17T12:55:29;99784.88;;;26.78;62.11
9289;BME280;4683;50.864;12.086;2022-10-17T12:58:01;99783.53;;;26.80;62.67
9289;BME280;4683;50.864;12.086;2022-10-17T13:00:41;99783.78;;;26.74;63.52
9289;BME280;4683;50.864;12.086;2022-10-17T13:03:14;99776.75;;;26.73;65.07
9289;BME280;4683;50.864;12.086;2022-10-17T13:05:49;99785.16;;;26.76;65.79
9289;BME280;4683;50.864;12.086;2022-10-17T13:08:26;99778.94;;;26.81;65.92
9289;BME280;4683;50.864;12.086;2022-10-17T13:10:59;99779.19;;;26.79;66.25
9289;BME280;4683;50.864;12.086;2022-10-17T13:13:40;99780.56;;;26.72;65.82
9289;BME280;4683;50.864;12.086;2022-10-17T13:16:31;99781.34;;;26.62;66.79
9289;BME280;4683;50.864;12.086;2022-10-17T13:19:10;99777.84;;;26.72;66.91
9289;BME280;4683;50.864;12.086;2022-10-17T13:21:49;99786.47;;;26.53;65.58
9289;BME280;4683;50.864;12.086;2022-10-17T13:24:22;99787.53;;;26.52;67.38
9289;BME280;4683;50.864;12.086;2022-10-17T13:26:55;99793.50;;;26.49;68.27
9289;BME280;4683;50.864;12.086;2022-10-17T13:29:25;99794.00;;;26.41;67.68
9289;BME280;4683;50.864;12.086;2022-10-17T13:31:59;99797.50;;;26.31;68.19
9289;BME280;4683;50.864;12.086;2022-10-17T13:34:31;99806.13;;;26.34;69.78
9289;BME280;4683;50.864;12.086;2022-10-17T13:37:03;99797.22;;;26.38;69.01
9289;BME280;4683;50.864;12.086;2022-10-17T13:39:45;99802.09;;;26.31;69.51
9289;BME280;4683;50.864;12.086;2022-10-17T13:42:21;99804.00;;;26.30;70.16
9289;BME280;4683;50.864;12.086;2022-10-17T13:44:53;99796.97;;;26.40;69.66
9289;BME280;4683;50.864;12.086;2022-10-17T13:47:26;99796.16;;;26.39;70.28